sensor_id;sensor_type;location;lat;lon;timestamp;P1;durP1;ratioP1;P2;durP2;ratioP2
37805;SDS011;25082;50.870;0.022;2022-08-21T00:01:43;5.22;;;1.90;;
37805;SDS011;25082;50.870;0.022;2022-08-21T00:04:10;3.42;;;1.70;;
37805;SDS011;25082;50.870;0.022;2022-08-21T00:06:36;3.97;;;1.67;;
37805;SDS011;25082;50.870;0.022;2022-08-21T00:09:03;4.90;;;1.95;;
37805;SDS011;25082;50.870;0.022;2022-08-21T00:11:30;5.07;;;1.83;;
37805;SDS011;25082;50.870;0.022;2022-08-21T00:13:56;3.28;;;1.77;;
37805;SDS011;25082;50.870;0.022;2022-08-21T00:16:22;5.70;;;1.70;;
37805;SDS011;25082;50.870;0.022;2022-08-21T00:18:48;3.95;;;1.63;;
37805;SDS011;25082;50.870;0.022;2022-08-21T00:21:15;5.68;;;1.38;;
37805;SDS011;25082;50.870;0.022;2022-08-21T00:23:41;4.03;;;1.60;;
37805;SDS011;25082;50.870;0.022;2022-08-21T00:26:08;4.35;;;1.38;;
37805;SDS011;25082;50.870;0.022;2022-08-21T00:28:34;6.25;;;1.90;;
37805;SDS011;25082;50.870;0.022;2022-08-21T00:31:00;3.63;;;1.48;;
37805;SDS011;25082;50.870;0.022;2022-08-21T00:33:29;6.22;;;1.70;;
37805;SDS011;25082;50.870;0.022;2022-08-21T00:35:55;2.95;;;1.48;;
37805;SDS011;25082;50.870;0.022;2022-08-21T00:38:21;6.65;;;1.80;;
37805;SDS011;25082;50.870;0.022;2022-08-21T00:43:19;7.32;;;1.67;;
37805;SDS011;25082;50.870;0.022;2022-08-21T00:45:53;6.28;;;1.65;;
37805;SDS011;25082;50.870;0.022;2022-08-21T00:48:20;4.03;;;1.40;;
37805;SDS011;25082;50.870;0.022;2022-08-21T00:50:51;3.70;;;1.50;;
37805;SDS011;25082;50.870;0.022;2022-08-21T00:53:40;5.53;;;1.73;;
37805;SDS011;25082;50.870;0.022;2022-08-21T00:56:09;4.78;;;1.45;;
37805;SDS011;25082;50.870;0.022;2022-08-21T00:58:36;4.78;;;1.80;;
37805;SDS011;25082;50.870;0.022;2022-08-21T01:01:06;3.33;;;1.45;;
37805;SDS011;25082;50.870;0.022;2022-08-21T01:03:33;4.65;;;2.22;;
37805;SDS011;25082;50.870;0.022;2022-08-21T01:06:00;5.30;;;1.63;;
37805;SDS011;25082;50.870;0.022;2022-08-21T01:08:27;6.05;;;1.77;;
37805;SDS011;25082;50.870;0.022;2022-08-21T01:10:54;5.82;;;1.98;;
37805;SDS011;25082;50.870;0.022;2022-08-21T01:13:20;4.72;;;1.85;;
37805;SDS011;25082;50.870;0.022;2022-08-21T01:15:49;4.88;;;1.50;;
37805;SDS011;25082;50.870;0.022;2022-08-21T01:18:18;2.25;;;1.27;;
37805;SDS011;25082;50.870;0.022;2022-08-21T01:20:56;4.93;;;1.77;;
37805;SDS011;25082;50.870;0.022;2022-08-21T01:23:32;5.18;;;1.90;;
37805;SDS011;25082;50.870;0.022;2022-08-21T01:25:59;6.97;;;1.42;;
37805;SDS011;25082;50.870;0.022;2022-08-21T01:28:25;4.07;;;1.45;;
37805;SDS011;25082;50.870;0.022;2022-08-21T01:30:55;7.45;;;2.25;;
37805;SDS011;25082;50.870;0.022;2022-08-21T01:33:22;3.80;;;1.50;;
37805;SDS011;25082;50.870;0.022;2022-08-21T01:35:49;3.80;;;1.55;;
37805;SDS011;25082;50.870;0.022;2022-08-21T01:38:15;2.95;;;1.13;;
37805;SDS011;25082;50.870;0.022;2022-08-21T01:40:42;3.85;;;1.30;;
37805;SDS011;25082;50.870;0.022;2022-08-21T01:43:09;4.70;;;1.58;;
37805;SDS011;25082;50.870;0.022;2022-08-21T01:45:35;3.83;;;1.35;;
37805;SDS011;25082;50.870;0.022;2022-08-21T01:48:01;4.30;;;1.52;;
37805;SDS011;25082;50.870;0.022;2022-08-21T01:50:27;4.85;;;1.50;;
37805;SDS011;25082;50.870;0.022;2022-08-21T01:52:53;5.00;;;1.58;;
37805;SDS011;25082;50.870;0.022;2022-08-21T01:55:19;3.83;;;1.27;;
37805;SDS011;25082;50.870;0.022;2022-08-21T01:57:46;4.68;;;1.50;;
37805;SDS011;25082;50.870;0.022;2022-08-21T02:00:13;5.03;;;0.95;;
37805;SDS011;25082;50.870;0.022;2022-08-21T02:02:41;4.18;;;1.50;;
37805;SDS011;25082;50.870;0.022;2022-08-21T02:05:09;3.88;;;1.95;;
37805;SDS011;25082;50.870;0.022;2022-08-21T02:07:40;3.80;;;1.60;;
37805;SDS011;25082;50.870;0.022;2022-08-21T02:10:12;6.03;;;1.80;;
37805;SDS011;25082;50.870;0.022;2022-08-21T02:12:40;3.95;;;1.30;;
37805;SDS011;25082;50.870;0.022;2022-08-21T02:15:06;4.45;;;1.90;;
37805;SDS011;25082;50.870;0.022;2022-08-21T02:17:44;5.32;;;1.60;;
37805;SDS011;25082;50.870;0.022;2022-08-21T02:20:16;3.63;;;1.60;;
37805;SDS011;25082;50.870;0.022;2022-08-21T02:22:47;3.38;;;1.38;;
37805;SDS011;25082;50.870;0.022;2022-08-21T02:25:14;4.50;;;1.65;;
37805;SDS011;25082;50.870;0.022;2022-08-21T02:27:41;4.05;;;1.33;;
37805;SDS011;25082;50.870;0.022;2022-08-21T02:30:11;4.45;;;1.10;;
37805;SDS011;25082;50.870;0.022;2022-08-21T02:32:39;4.93;;;1.45;;
37805;SDS011;25082;50.870;0.022;2022-08-21T02:35:06;6.30;;;1.75;;
37805;SDS011;25082;50.870;0.022;2022-08-21T02:37:32;4.40;;;1.65;;
37805;SDS011;25082;50.870;0.022;2022-08-21T02:39:59;3.25;;;1.23;;
37805;SDS011;25082;50.870;0.022;2022-08-21T02:42:26;3.80;;;1.55;;
37805;SDS011;25082;50.870;0.022;2022-08-21T02:44:52;3.88;;;1.35;;
37805;SDS011;25082;50.870;0.022;2022-08-21T02:47:17;4.32;;;1.25;;
37805;SDS011;25082;50.870;0.022;2022-08-21T02:49:43;4.78;;;1.48;;
37805;SDS011;25082;50.870;0.022;2022-08-21T02:52:09;3.53;;;1.20;;
37805;SDS011;25082;50.870;0.022;2022-08-21T02:54:36;5.85;;;1.25;;
37805;SDS011;25082;50.870;0.022;2022-08-21T02:57:02;4.28;;;1.30;;
37805;SDS011;25082;50.870;0.022;2022-08-21T02:59:28;5.65;;;1.45;;
37805;SDS011;25082;50.870;0.022;2022-08-21T03:01:53;2.67;;;1.00;;
37805;SDS011;25082;50.870;0.022;2022-08-21T03:04:20;2.65;;;1.10;;
37805;SDS011;25082;50.870;0.022;2022-08-21T03:06:47;4.88;;;1.33;;
37805;SDS011;25082;50.870;0.022;2022-08-21T03:09:13;2.95;;;1.25;;
37805;SDS011;25082;50.870;0.022;2022-08-21T03:11:39;1.20;;;0.93;;
37805;SDS011;25082;50.870;0.022;2022-08-21T03:14:04;4.97;;;1.65;;
37805;SDS011;25082;50.870;0.022;2022-08-21T03:16:30;4.85;;;1.33;;
37805;SDS011;25082;50.870;0.022;2022-08-21T03:18:56;4.15;;;1.70;;
37805;SDS011;25082;50.870;0.022;2022-08-21T03:21:22;4.10;;;1.38;;
37805;SDS011;25082;50.870;0.022;2022-08-21T03:23:47;3.03;;;0.95;;
37805;SDS011;25082;50.870;0.022;2022-08-21T03:26:13;4.22;;;1.35;;
37805;SDS011;25082;50.870;0.022;2022-08-21T03:28:39;2.28;;;1.05;;
37805;SDS011;25082;50.870;0.022;2022-08-21T03:31:05;3.35;;;1.38;;
37805;SDS011;25082;50.870;0.022;2022-08-21T03:33:31;4.53;;;1.40;;
37805;SDS011;25082;50.870;0.022;2022-08-21T03:36:01;3.97;;;1.35;;
37805;SDS011;25082;50.870;0.022;2022-08-21T03:38:31;5.00;;;1.23;;
37805;SDS011;25082;50.870;0.022;2022-08-21T03:40:58;7.15;;;1.88;;
37805;SDS011;25082;50.870;0.022;2022-08-21T03:43:25;5.32;;;2.00;;
37805;SDS011;25082;50.870;0.022;2022-08-21T03:45:51;4.63;;;1.38;;
37805;SDS011;25082;50.870;0.022;2022-08-21T03:48:18;3.10;;;1.25;;
37805;SDS011;25082;50.870;0.022;2022-08-21T03:50:44;4.05;;;1.55;;
37805;SDS011;25082;50.870;0.022;2022-08-21T03:53:12;3.22;;;1.20;;
37805;SDS011;25082;50.870;0.022;2022-08-21T03:55:39;5.68;;;1.67;;
37805;SDS011;25082;50.870;0.022;2022-08-21T03:58:05;4.25;;;1.50;;
37805;SDS011;25082;50.870;0.022;2022-08-21T04:00:31;6.93;;;1.45;;
37805;SDS011;25082;50.870;0.022;2022-08-21T04:02:56;4.97;;;1.67;;
37805;SDS011;25082;50.870;0.022;2022-08-21T04:05:22;4.00;;;1.42;;
37805;SDS011;25082;50.870;0.022;2022-08-21T04:07:58;8.45;;;2.20;;
37805;SDS011;25082;50.870;0.022;2022-08-21T04:10:27;4.78;;;1.48;;
37805;SDS011;25082;50.870;0.022;2022-08-21T04:12:53;2.55;;;1.20;;
37805;SDS011;25082;50.870;0.022;2022-08-21T04:15:22;3.65;;;1.40;;
37805;SDS011;25082;50.870;0.022;2022-08-21T04:17:49;3.90;;;1.35;;
37805;SDS011;25082;50.870;0.022;2022-08-21T04:20:16;2.90;;;1.05;;
37805;SDS011;25082;50.870;0.022;2022-08-21T04:22:43;4.45;;;1.73;;
37805;SDS011;25082;50.870;0.022;2022-08-21T04:25:09;3.58;;;1.30;;
37805;SDS011;25082;50.870;0.022;2022-08-21T04:27:35;3.67;;;1.20;;
37805;SDS011;25082;50.870;0.022;2022-08-21T04:30:02;2.58;;;1.30;;
37805;SDS011;25082;50.870;0.022;2022-08-21T04:32:29;2.88;;;1.15;;
37805;SDS011;25082;50.870;0.022;2022-08-21T04:35:03;6.95;;;1.83;;
37805;SDS011;25082;50.870;0.022;2022-08-21T04:37:31;3.15;;;1.50;;
37805;SDS011;25082;50.870;0.022;2022-08-21T04:39:57;4.43;;;1.40;;
37805;SDS011;25082;50.870;0.022;2022-08-21T04:42:26;5.20;;;1.67;;
37805;SDS011;25082;50.870;0.022;2022-08-21T04:44:53;3.15;;;1.30;;
37805;SDS011;25082;50.870;0.022;2022-08-21T04:47:21;3.00;;;1.20;;
37805;SDS011;25082;50.870;0.022;2022-08-21T04:49:48;4.35;;;1.30;;
37805;SDS011;25082;50.870;0.022;2022-08-21T04:52:15;4.18;;;1.20;;
37805;SDS011;25082;50.870;0.022;2022-08-21T04:54:44;6.20;;;1.65;;
37805;SDS011;25082;50.870;0.022;2022-08-21T04:57:12;3.08;;;1.17;;
37805;SDS011;25082;50.870;0.022;2022-08-21T04:59:41;3.17;;;1.50;;
37805;SDS011;25082;50.870;0.022;2022-08-21T05:02:10;4.68;;;1.63;;
37805;SDS011;25082;50.870;0.022;2022-08-21T05:04:44;3.67;;;1.02;;
37805;SDS011;25082;50.870;0.022;2022-08-21T05:07:18;3.25;;;1.20;;
37805;SDS011;25082;50.870;0.022;2022-08-21T05:09:47;3.97;;;1.10;;
37805;SDS011;25082;50.870;0.022;2022-08-21T05:12:13;6.15;;;1.92;;
37805;SDS011;25082;50.870;0.022;2022-08-21T05:14:39;3.03;;;0.95;;
37805;SDS011;25082;50.870;0.022;2022-08-21T05:17:05;3.90;;;1.48;;
37805;SDS011;25082;50.870;0.022;2022-08-21T05:19:31;3.35;;;1.30;;
37805;SDS011;25082;50.870;0.022;2022-08-21T05:21:56;3.17;;;1.42;;
37805;SDS011;25082;50.870;0.022;2022-08-21T05:24:23;2.67;;;1.02;;
37805;SDS011;25082;50.870;0.022;2022-08-21T05:26:49;2.03;;;0.90;;
37805;SDS011;25082;50.870;0.022;2022-08-21T05:29:15;2.05;;;1.00;;
37805;SDS011;25082;50.870;0.022;2022-08-21T05:31:41;3.78;;;1.30;;
37805;SDS011;25082;50.870;0.022;2022-08-21T05:34:07;3.45;;;1.15;;
37805;SDS011;25082;50.870;0.022;2022-08-21T05:36:33;3.17;;;1.30;;
37805;SDS011;25082;50.870;0.022;2022-08-21T05:38:59;3.75;;;1.40;;
37805;SDS011;25082;50.870;0.022;2022-08-21T05:41:25;3.92;;;1.40;;
37805;SDS011;25082;50.870;0.022;2022-08-21T05:43:51;2.70;;;1.25;;
37805;SDS011;25082;50.870;0.022;2022-08-21T05:46:17;3.97;;;1.27;;
37805;SDS011;25082;50.870;0.022;2022-08-21T05:48:42;3.50;;;1.00;;
37805;SDS011;25082;50.870;0.022;2022-08-21T05:51:09;4.15;;;1.52;;
37805;SDS011;25082;50.870;0.022;2022-08-21T05:53:37;3.03;;;0.98;;
37805;SDS011;25082;50.870;0.022;2022-08-21T05:56:03;5.03;;;1.40;;
37805;SDS011;25082;50.870;0.022;2022-08-21T05:58:30;4.00;;;1.45;;
37805;SDS011;25082;50.870;0.022;2022-08-21T06:00:57;3.95;;;1.15;;
37805;SDS011;25082;50.870;0.022;2022-08-21T06:03:28;2.65;;;1.20;;
37805;SDS011;25082;50.870;0.022;2022-08-21T06:05:56;4.55;;;1.40;;
37805;SDS011;25082;50.870;0.022;2022-08-21T06:08:22;5.10;;;1.65;;
37805;SDS011;25082;50.870;0.022;2022-08-21T06:10:49;4.30;;;1.67;;
37805;SDS011;25082;50.870;0.022;2022-08-21T06:13:16;3.63;;;1.23;;
37805;SDS011;25082;50.870;0.022;2022-08-21T06:15:43;3.28;;;1.30;;
37805;SDS011;25082;50.870;0.022;2022-08-21T06:18:10;3.97;;;1.45;;
37805;SDS011;25082;50.870;0.022;2022-08-21T06:20:36;3.58;;;1.38;;
37805;SDS011;25082;50.870;0.022;2022-08-21T06:23:02;4.30;;;1.27;;
37805;SDS011;25082;50.870;0.022;2022-08-21T06:25:29;2.30;;;1.15;;
37805;SDS011;25082;50.870;0.022;2022-08-21T06:28:05;3.58;;;1.05;;
37805;SDS011;25082;50.870;0.022;2022-08-21T06:30:33;2.15;;;1.00;;
37805;SDS011;25082;50.870;0.022;2022-08-21T06:32:59;5.47;;;1.25;;
37805;SDS011;25082;50.870;0.022;2022-08-21T06:35:25;2.97;;;1.40;;
37805;SDS011;25082;50.870;0.022;2022-08-21T06:37:51;4.57;;;1.30;;
37805;SDS011;25082;50.870;0.022;2022-08-21T06:40:17;5.35;;;1.63;;
37805;SDS011;25082;50.870;0.022;2022-08-21T06:42:43;3.25;;;1.35;;
37805;SDS011;25082;50.870;0.022;2022-08-21T06:45:09;5.07;;;1.55;;
37805;SDS011;25082;50.870;0.022;2022-08-21T06:47:35;4.30;;;1.50;;
37805;SDS011;25082;50.870;0.022;2022-08-21T06:50:01;3.70;;;1.23;;
37805;SDS011;25082;50.870;0.022;2022-08-21T06:52:29;4.55;;;1.20;;
37805;SDS011;25082;50.870;0.022;2022-08-21T06:54:55;5.40;;;1.60;;
37805;SDS011;25082;50.870;0.022;2022-08-21T06:57:21;2.90;;;1.30;;
37805;SDS011;25082;50.870;0.022;2022-08-21T06:59:46;4.18;;;1.48;;
37805;SDS011;25082;50.870;0.022;2022-08-21T07:02:12;2.35;;;1.40;;
37805;SDS011;25082;50.870;0.022;2022-08-21T07:04:38;2.67;;;1.20;;
37805;SDS011;25082;50.870;0.022;2022-08-21T07:07:04;4.53;;;1.30;;
37805;SDS011;25082;50.870;0.022;2022-08-21T07:09:30;4.25;;;1.73;;
37805;SDS011;25082;50.870;0.022;2022-08-21T07:11:55;4.50;;;1.50;;
37805;SDS011;25082;50.870;0.022;2022-08-21T07:14:22;3.58;;;1.38;;
37805;SDS011;25082;50.870;0.022;2022-08-21T07:16:48;3.80;;;1.50;;
37805;SDS011;25082;50.870;0.022;2022-08-21T07:19:15;4.32;;;1.45;;
37805;SDS011;25082;50.870;0.022;2022-08-21T07:21:41;3.53;;;1.10;;
37805;SDS011;25082;50.870;0.022;2022-08-21T07:24:07;6.32;;;1.95;;
37805;SDS011;25082;50.870;0.022;2022-08-21T07:26:34;4.45;;;1.33;;
37805;SDS011;25082;50.870;0.022;2022-08-21T07:29:00;3.58;;;1.25;;
37805;SDS011;25082;50.870;0.022;2022-08-21T07:31:26;4.57;;;1.55;;
37805;SDS011;25082;50.870;0.022;2022-08-21T07:33:52;3.55;;;1.45;;
37805;SDS011;25082;50.870;0.022;2022-08-21T07:36:18;2.47;;;1.08;;
37805;SDS011;25082;50.870;0.022;2022-08-21T07:38:45;3.20;;;1.40;;
37805;SDS011;25082;50.870;0.022;2022-08-21T07:41:20;3.95;;;1.27;;
37805;SDS011;25082;50.870;0.022;2022-08-21T07:43:48;2.50;;;0.90;;
37805;SDS011;25082;50.870;0.022;2022-08-21T07:46:14;3.00;;;1.42;;
37805;SDS011;25082;50.870;0.022;2022-08-21T07:48:40;5.00;;;1.85;;
37805;SDS011;25082;50.870;0.022;2022-08-21T07:51:08;3.47;;;1.50;;
37805;SDS011;25082;50.870;0.022;2022-08-21T07:53:36;4.35;;;1.73;;
37805;SDS011;25082;50.870;0.022;2022-08-21T07:56:02;4.25;;;1.50;;
37805;SDS011;25082;50.870;0.022;2022-08-21T07:58:31;5.68;;;1.50;;
37805;SDS011;25082;50.870;0.022;2022-08-21T08:00:57;2.97;;;1.10;;
37805;SDS011;25082;50.870;0.022;2022-08-21T08:03:23;4.35;;;1.50;;
37805;SDS011;25082;50.870;0.022;2022-08-21T08:05:49;3.20;;;1.58;;
37805;SDS011;25082;50.870;0.022;2022-08-21T08:08:15;3.50;;;1.33;;
37805;SDS011;25082;50.870;0.022;2022-08-21T08:10:42;4.28;;;1.58;;
37805;SDS011;25082;50.870;0.022;2022-08-21T08:13:08;3.67;;;1.40;;
37805;SDS011;25082;50.870;0.022;2022-08-21T08:15:35;7.25;;;1.85;;
37805;SDS011;25082;50.870;0.022;2022-08-21T08:18:01;5.32;;;1.95;;
37805;SDS011;25082;50.870;0.022;2022-08-21T08:20:27;3.33;;;1.48;;
37805;SDS011;25082;50.870;0.022;2022-08-21T08:22:54;3.63;;;1.63;;
37805;SDS011;25082;50.870;0.022;2022-08-21T08:25:21;3.47;;;1.60;;
37805;SDS011;25082;50.870;0.022;2022-08-21T08:27:48;3.67;;;1.48;;
37805;SDS011;25082;50.870;0.022;2022-08-21T08:30:15;3.28;;;1.27;;
37805;SDS011;25082;50.870;0.022;2022-08-21T08:32:43;4.35;;;1.80;;
37805;SDS011;25082;50.870;0.022;2022-08-21T08:35:09;5.88;;;1.70;;
37805;SDS011;25082;50.870;0.022;2022-08-21T08:37:37;2.88;;;1.30;;
37805;SDS011;25082;50.870;0.022;2022-08-21T08:40:06;7.50;;;1.80;;
37805;SDS011;25082;50.870;0.022;2022-08-21T08:42:36;3.60;;;1.63;;
37805;SDS011;25082;50.870;0.022;2022-08-21T08:45:07;3.97;;;1.52;;
37805;SDS011;25082;50.870;0.022;2022-08-21T08:50:41;3.83;;;1.50;;
37805;SDS011;25082;50.870;0.022;2022-08-21T08:53:05;3.95;;;1.60;;
37805;SDS011;25082;50.870;0.022;2022-08-21T08:55:39;4.43;;;1.92;;
37805;SDS011;25082;50.870;0.022;2022-08-21T08:58:08;2.88;;;1.42;;
37805;SDS011;25082;50.870;0.022;2022-08-21T09:00:52;3.35;;;1.50;;
37805;SDS011;25082;50.870;0.022;2022-08-21T09:03:21;3.65;;;1.50;;
37805;SDS011;25082;50.870;0.022;2022-08-21T09:05:51;4.35;;;1.33;;
37805;SDS011;25082;50.870;0.022;2022-08-21T09:11:13;3.75;;;1.50;;
37805;SDS011;25082;50.870;0.022;2022-08-21T09:14:05;2.92;;;1.58;;
37805;SDS011;25082;50.870;0.022;2022-08-21T09:19:49;3.60;;;1.30;;
37805;SDS011;25082;50.870;0.022;2022-08-21T09:22:27;4.00;;;1.42;;
37805;SDS011;25082;50.870;0.022;2022-08-21T09:25:21;4.55;;;1.25;;
37805;SDS011;25082;50.870;0.022;2022-08-21T09:27:53;4.10;;;1.55;;
37805;SDS011;25082;50.870;0.022;2022-08-21T09:30:23;4.00;;;1.30;;
37805;SDS011;25082;50.870;0.022;2022-08-21T09:32:54;2.33;;;1.27;;
37805;SDS011;25082;50.870;0.022;2022-08-21T09:35:21;4.07;;;1.52;;
37805;SDS011;25082;50.870;0.022;2022-08-21T09:37:59;5.18;;;1.63;;
37805;SDS011;25082;50.870;0.022;2022-08-21T09:45:37;3.00;;;1.38;;
37805;SDS011;25082;50.870;0.022;2022-08-21T09:48:08;3.92;;;1.20;;
37805;SDS011;25082;50.870;0.022;2022-08-21T09:50:41;4.43;;;1.42;;
37805;SDS011;25082;50.870;0.022;2022-08-21T09:53:15;4.32;;;1.45;;
37805;SDS011;25082;50.870;0.022;2022-08-21T09:55:53;4.15;;;1.55;;
37805;SDS011;25082;50.870;0.022;2022-08-21T09:58:42;2.78;;;1.17;;
37805;SDS011;25082;50.870;0.022;2022-08-21T10:01:14;2.88;;;1.38;;
37805;SDS011;25082;50.870;0.022;2022-08-21T10:03:45;8.68;;;1.83;;
37805;SDS011;25082;50.870;0.022;2022-08-21T10:06:20;3.58;;;1.50;;
37805;SDS011;25082;50.870;0.022;2022-08-21T10:08:49;7.32;;;2.05;;
37805;SDS011;25082;50.870;0.022;2022-08-21T10:11:15;5.13;;;1.83;;
37805;SDS011;25082;50.870;0.022;2022-08-21T10:16:27;3.45;;;1.50;;
37805;SDS011;25082;50.870;0.022;2022-08-21T10:21:38;2.88;;;1.42;;
37805;SDS011;25082;50.870;0.022;2022-08-21T10:24:23;3.13;;;1.40;;
37805;SDS011;25082;50.870;0.022;2022-08-21T10:31:00;6.28;;;1.65;;
37805;SDS011;25082;50.870;0.022;2022-08-21T10:36:09;11.73;;;3.13;;
37805;SDS011;25082;50.870;0.022;2022-08-21T10:47:28;10.60;;;2.78;;
37805;SDS011;25082;50.870;0.022;2022-08-21T10:50:10;12.63;;;3.10;;
37805;SDS011;25082;50.870;0.022;2022-08-21T11:01:07;12.50;;;2.92;;
37805;SDS011;25082;50.870;0.022;2022-08-21T11:06:12;15.88;;;2.67;;
37805;SDS011;25082;50.870;0.022;2022-08-21T11:08:51;11.93;;;2.78;;
37805;SDS011;25082;50.870;0.022;2022-08-21T11:11:29;10.90;;;3.28;;
37805;SDS011;25082;50.870;0.022;2022-08-21T11:14:03;13.00;;;3.28;;
37805;SDS011;25082;50.870;0.022;2022-08-21T11:17:00;12.75;;;3.22;;
37805;SDS011;25082;50.870;0.022;2022-08-21T11:19:36;8.98;;;2.72;;
37805;SDS011;25082;50.870;0.022;2022-08-21T11:22:14;7.47;;;2.55;;
37805;SDS011;25082;50.870;0.022;2022-08-21T11:27:40;14.63;;;3.38;;
37805;SDS011;25082;50.870;0.022;2022-08-21T11:30:14;12.43;;;3.22;;
37805;SDS011;25082;50.870;0.022;2022-08-21T11:35:37;13.35;;;2.88;;
37805;SDS011;25082;50.870;0.022;2022-08-21T11:43:47;14.07;;;2.75;;
37805;SDS011;25082;50.870;0.022;2022-08-21T11:56:48;10.88;;;2.72;;
37805;SDS011;25082;50.870;0.022;2022-08-21T11:59:20;12.27;;;3.35;;
37805;SDS011;25082;50.870;0.022;2022-08-21T12:02:00;11.32;;;2.80;;
37805;SDS011;25082;50.870;0.022;2022-08-21T12:07:09;12.30;;;3.03;;
37805;SDS011;25082;50.870;0.022;2022-08-21T12:09:55;12.95;;;2.78;;
37805;SDS011;25082;50.870;0.022;2022-08-21T12:12:24;12.38;;;2.85;;
37805;SDS011;25082;50.870;0.022;2022-08-21T12:15:04;11.75;;;3.38;;
37805;SDS011;25082;50.870;0.022;2022-08-21T12:17:51;15.48;;;3.50;;
37805;SDS011;25082;50.870;0.022;2022-08-21T12:22:49;9.07;;;2.63;;
37805;SDS011;25082;50.870;0.022;2022-08-21T12:25:20;11.68;;;3.13;;
37805;SDS011;25082;50.870;0.022;2022-08-21T12:27:47;16.02;;;3.13;;
37805;SDS011;25082;50.870;0.022;2022-08-21T12:32:56;9.98;;;2.53;;
37805;SDS011;25082;50.870;0.022;2022-08-21T12:35:37;9.88;;;2.60;;
37805;SDS011;25082;50.870;0.022;2022-08-21T12:38:23;13.10;;;3.47;;
37805;SDS011;25082;50.870;0.022;2022-08-21T12:40:55;11.00;;;3.25;;
37805;SDS011;25082;50.870;0.022;2022-08-21T12:43:28;8.90;;;2.88;;
37805;SDS011;25082;50.870;0.022;2022-08-21T12:45:55;10.00;;;3.13;;
37805;SDS011;25082;50.870;0.022;2022-08-21T12:51:07;13.40;;;3.30;;
37805;SDS011;25082;50.870;0.022;2022-08-21T12:53:41;10.75;;;2.63;;
37805;SDS011;25082;50.870;0.022;2022-08-21T12:56:18;8.35;;;2.72;;
37805;SDS011;25082;50.870;0.022;2022-08-21T12:58:46;11.45;;;2.95;;
37805;SDS011;25082;50.870;0.022;2022-08-21T13:03:50;13.20;;;2.28;;
37805;SDS011;25082;50.870;0.022;2022-08-21T13:06:19;23.85;;;3.08;;
37805;SDS011;25082;50.870;0.022;2022-08-21T13:08:48;9.38;;;2.70;;
37805;SDS011;25082;50.870;0.022;2022-08-21T13:11:32;14.35;;;3.38;;
37805;SDS011;25082;50.870;0.022;2022-08-21T13:13:58;12.18;;;3.22;;
37805;SDS011;25082;50.870;0.022;2022-08-21T13:16:27;14.13;;;2.78;;
37805;SDS011;25082;50.870;0.022;2022-08-21T13:21:40;8.80;;;2.60;;
37805;SDS011;25082;50.870;0.022;2022-08-21T13:24:15;12.18;;;2.75;;
37805;SDS011;25082;50.870;0.022;2022-08-21T13:26:43;9.48;;;3.17;;
37805;SDS011;25082;50.870;0.022;2022-08-21T13:29:10;13.57;;;3.22;;
37805;SDS011;25082;50.870;0.022;2022-08-21T13:31:37;10.27;;;2.83;;
37805;SDS011;25082;50.870;0.022;2022-08-21T13:34:07;15.57;;;3.63;;
37805;SDS011;25082;50.870;0.022;2022-08-21T13:36:36;15.88;;;2.90;;
37805;SDS011;25082;50.870;0.022;2022-08-21T13:39:09;8.98;;;2.80;;
37805;SDS011;25082;50.870;0.022;2022-08-21T13:41:38;12.32;;;2.67;;
37805;SDS011;25082;50.870;0.022;2022-08-21T13:44:18;9.80;;;2.75;;
37805;SDS011;25082;50.870;0.022;2022-08-21T13:46:51;10.57;;;2.83;;
37805;SDS011;25082;50.870;0.022;2022-08-21T13:49:19;12.40;;;2.55;;
37805;SDS011;25082;50.870;0.022;2022-08-21T13:51:51;16.00;;;4.03;;
37805;SDS011;25082;50.870;0.022;2022-08-21T13:56:46;15.32;;;2.45;;
37805;SDS011;25082;50.870;0.022;2022-08-21T13:59:22;8.80;;;2.83;;
37805;SDS011;25082;50.870;0.022;2022-08-21T14:01:53;20.90;;;3.38;;
37805;SDS011;25082;50.870;0.022;2022-08-21T14:05:00;9.82;;;2.70;;
37805;SDS011;25082;50.870;0.022;2022-08-21T14:07:29;12.88;;;2.83;;
37805;SDS011;25082;50.870;0.022;2022-08-21T14:09:59;10.70;;;2.50;;
37805;SDS011;25082;50.870;0.022;2022-08-21T14:12:32;10.05;;;3.20;;
37805;SDS011;25082;50.870;0.022;2022-08-21T14:15:06;10.52;;;2.88;;
37805;SDS011;25082;50.870;0.022;2022-08-21T14:17:34;7.60;;;2.70;;
37805;SDS011;25082;50.870;0.022;2022-08-21T14:20:03;8.65;;;2.50;;
37805;SDS011;25082;50.870;0.022;2022-08-21T14:25:12;15.32;;;3.55;;
37805;SDS011;25082;50.870;0.022;2022-08-21T14:27:54;13.80;;;2.78;;
37805;SDS011;25082;50.870;0.022;2022-08-21T14:30:25;11.35;;;2.92;;
37805;SDS011;25082;50.870;0.022;2022-08-21T14:35:18;11.57;;;3.55;;
37805;SDS011;25082;50.870;0.022;2022-08-21T14:37:46;21.42;;;3.35;;
37805;SDS011;25082;50.870;0.022;2022-08-21T14:40:12;17.45;;;3.22;;
37805;SDS011;25082;50.870;0.022;2022-08-21T14:42:41;11.20;;;3.05;;
37805;SDS011;25082;50.870;0.022;2022-08-21T14:45:25;10.35;;;3.22;;
37805;SDS011;25082;50.870;0.022;2022-08-21T14:47:52;10.30;;;2.17;;
37805;SDS011;25082;50.870;0.022;2022-08-21T14:50:18;12.55;;;3.10;;
37805;SDS011;25082;50.870;0.022;2022-08-21T14:52:44;14.02;;;3.53;;
37805;SDS011;25082;50.870;0.022;2022-08-21T14:55:11;14.32;;;3.40;;
37805;SDS011;25082;50.870;0.022;2022-08-21T14:57:41;15.40;;;2.78;;
37805;SDS011;25082;50.870;0.022;2022-08-21T15:00:14;12.70;;;3.00;;
37805;SDS011;25082;50.870;0.022;2022-08-21T15:02:43;13.82;;;3.25;;
37805;SDS011;25082;50.870;0.022;2022-08-21T15:05:09;12.43;;;3.20;;
37805;SDS011;25082;50.870;0.022;2022-08-21T15:07:35;12.38;;;2.88;;
37805;SDS011;25082;50.870;0.022;2022-08-21T15:10:02;11.85;;;2.63;;
37805;SDS011;25082;50.870;0.022;2022-08-21T15:12:28;9.68;;;3.15;;
37805;SDS011;25082;50.870;0.022;2022-08-21T15:14:54;10.48;;;2.83;;
37805;SDS011;25082;50.870;0.022;2022-08-21T15:17:20;12.75;;;3.03;;
37805;SDS011;25082;50.870;0.022;2022-08-21T15:19:46;9.38;;;2.80;;
37805;SDS011;25082;50.870;0.022;2022-08-21T15:22:11;7.65;;;2.47;;
37805;SDS011;25082;50.870;0.022;2022-08-21T15:24:37;11.02;;;2.70;;
37805;SDS011;25082;50.870;0.022;2022-08-21T15:27:03;11.45;;;2.83;;
37805;SDS011;25082;50.870;0.022;2022-08-21T15:29:31;11.95;;;3.50;;
37805;SDS011;25082;50.870;0.022;2022-08-21T15:31:59;11.73;;;2.78;;
37805;SDS011;25082;50.870;0.022;2022-08-21T15:34:28;11.20;;;3.00;;
37805;SDS011;25082;50.870;0.022;2022-08-21T15:36:55;10.65;;;2.67;;
37805;SDS011;25082;50.870;0.022;2022-08-21T15:39:23;16.98;;;3.60;;
37805;SDS011;25082;50.870;0.022;2022-08-21T15:41:49;10.98;;;3.00;;
37805;SDS011;25082;50.870;0.022;2022-08-21T15:44:15;16.38;;;3.20;;
37805;SDS011;25082;50.870;0.022;2022-08-21T15:46:41;18.35;;;3.13;;
37805;SDS011;25082;50.870;0.022;2022-08-21T15:49:09;11.68;;;2.97;;
37805;SDS011;25082;50.870;0.022;2022-08-21T15:51:36;12.10;;;3.17;;
37805;SDS011;25082;50.870;0.022;2022-08-21T15:54:02;13.77;;;3.38;;
37805;SDS011;25082;50.870;0.022;2022-08-21T15:56:32;10.40;;;3.50;;
37805;SDS011;25082;50.870;0.022;2022-08-21T15:59:01;10.20;;;3.35;;
37805;SDS011;25082;50.870;0.022;2022-08-21T16:01:38;7.53;;;2.80;;
37805;SDS011;25082;50.870;0.022;2022-08-21T16:04:04;10.70;;;3.38;;
37805;SDS011;25082;50.870;0.022;2022-08-21T16:06:32;13.73;;;3.20;;
37805;SDS011;25082;50.870;0.022;2022-08-21T16:08:58;14.73;;;3.63;;
37805;SDS011;25082;50.870;0.022;2022-08-21T16:11:25;9.50;;;3.25;;
37805;SDS011;25082;50.870;0.022;2022-08-21T16:13:51;14.80;;;4.00;;
37805;SDS011;25082;50.870;0.022;2022-08-21T16:16:18;10.48;;;3.70;;
37805;SDS011;25082;50.870;0.022;2022-08-21T16:18:46;18.70;;;3.05;;
37805;SDS011;25082;50.870;0.022;2022-08-21T16:21:13;11.90;;;2.92;;
37805;SDS011;25082;50.870;0.022;2022-08-21T16:23:39;14.18;;;2.80;;
37805;SDS011;25082;50.870;0.022;2022-08-21T16:26:06;17.83;;;3.13;;
37805;SDS011;25082;50.870;0.022;2022-08-21T16:28:34;10.57;;;3.45;;